createdAt,value
2017-07-17T00:01:39.879Z,17.00
2017-07-17T00:04:07.405Z,17.00
2017-07-17T00:06:34.908Z,17.10
2017-07-17T00:09:02.425Z,17.10
2017-07-17T00:11:29.962Z,17.20
2017-07-17T00:13:57.550Z,17.20
2017-07-17T00:16:25.067Z,17.30
2017-07-17T00:18:52.598Z,17.30
2017-07-17T00:21:20.149Z,17.40
2017-07-17T00:23:47.677Z,17.40
2017-07-17T00:26:15.192Z,17.40
2017-07-17T00:28:42.689Z,17.30
2017-07-17T00:31:10.216Z,17.30
2017-07-17T00:33:37.746Z,17.30
2017-07-17T00:36:05.276Z,17.20
2017-07-17T00:38:32.811Z,17.10
2017-07-17T00:41:00.338Z,17.10
2017-07-17T00:43:27.855Z,17.00
2017-07-17T00:45:55.374Z,16.50
2017-07-17T00:48:22.921Z,16.50
2017-07-17T00:50:50.421Z,16.40
2017-07-17T00:53:17.936Z,16.30
2017-07-17T00:55:45.478Z,16.10
2017-07-17T00:58:13.003Z,16.00
2017-07-17T01:00:40.539Z,16.10
2017-07-17T01:03:08.061Z,16.00
2017-07-17T01:05:35.580Z,16.00
2017-07-17T01:08:03.110Z,16.10
2017-07-17T01:10:30.641Z,16.10
2017-07-17T01:12:58.174Z,16.10
2017-07-17T01:15:25.700Z,16.10
2017-07-17T01:17:53.264Z,16.10
2017-07-17T01:20:20.823Z,16.10
2017-07-17T01:22:48.326Z,16.10
2017-07-17T01:25:16.124Z,16.10
2017-07-17T01:27:43.660Z,16.10
2017-07-17T01:30:11.178Z,16.10
2017-07-17T01:32:38.706Z,16.00
2017-07-17T01:35:06.233Z,16.00
2017-07-17T01:37:33.778Z,16.00
2017-07-17T01:40:01.342Z,15.90
2017-07-17T01:42:28.855Z,15.80
2017-07-17T01:44:56.419Z,15.80
2017-07-17T01:47:23.960Z,15.80
2017-07-17T01:49:51.513Z,15.80
2017-07-17T01:52:19.023Z,15.70
2017-07-17T01:54:46.546Z,15.60
2017-07-17T01:57:14.095Z,15.40
2017-07-17T01:59:41.611Z,15.30
2017-07-17T02:02:09.432Z,15.20
2017-07-17T02:04:36.945Z,15.20
2017-07-17T02:07:04.469Z,15.00
2017-07-17T02:09:32.000Z,15.00
2017-07-17T02:11:59.513Z,15.00
2017-07-17T02:14:27.105Z,15.00
2017-07-17T02:16:55.079Z,15.00
2017-07-17T02:19:22.626Z,15.10
2017-07-17T02:21:50.168Z,15.10
2017-07-17T02:24:17.698Z,15.10
2017-07-17T02:26:45.256Z,15.10
2017-07-17T02:29:12.763Z,15.20
2017-07-17T02:31:40.307Z,15.20
2017-07-17T02:34:07.855Z,15.20
2017-07-17T02:36:35.389Z,15.20
2017-07-17T02:39:03.225Z,15.20
2017-07-17T02:41:30.751Z,15.20
2017-07-17T02:43:58.276Z,15.20
2017-07-17T02:46:25.798Z,15.20
2017-07-17T02:48:53.341Z,15.20
2017-07-17T02:51:20.859Z,15.20
2017-07-17T02:53:48.388Z,15.20
2017-07-17T02:56:17.051Z,15.10
2017-07-17T02:58:44.552Z,15.10
2017-07-17T03:01:12.096Z,15.10
2017-07-17T03:03:40.779Z,15.00
2017-07-17T03:06:08.449Z,15.00
2017-07-17T03:08:36.252Z,14.90
2017-07-17T03:11:03.772Z,14.90
2017-07-17T03:13:31.310Z,14.80
2017-07-17T03:15:58.835Z,14.70
2017-07-17T03:18:26.376Z,14.50
2017-07-17T03:20:53.914Z,14.50
2017-07-17T03:23:22.213Z,14.30
2017-07-17T03:25:49.723Z,14.20
2017-07-17T03:28:17.256Z,14.20
2017-07-17T03:30:44.784Z,14.30
2017-07-17T03:33:12.342Z,14.30
2017-07-17T03:35:39.883Z,14.30
2017-07-17T03:38:08.174Z,14.30
2017-07-17T03:40:35.716Z,14.30
2017-07-17T03:43:03.253Z,14.30
2017-07-17T03:45:30.777Z,14.30
2017-07-17T03:47:58.343Z,14.30
2017-07-17T03:50:25.872Z,14.30
2017-07-17T03:52:53.407Z,14.20
2017-07-17T03:55:20.931Z,14.20
2017-07-17T03:57:48.812Z,14.10
2017-07-17T04:00:16.336Z,14.00
2017-07-17T04:02:43.878Z,13.90
2017-07-17T04:05:11.427Z,13.90
2017-07-17T04:07:38.998Z,13.80
2017-07-17T04:10:06.597Z,13.80
2017-07-17T04:12:34.127Z,13.70
2017-07-17T04:15:02.035Z,13.70
2017-07-17T04:17:31.981Z,13.80
2017-07-17T04:19:59.541Z,13.80
2017-07-17T04:22:27.107Z,13.80
2017-07-17T04:24:54.694Z,13.90
2017-07-17T04:27:22.367Z,14.00
2017-07-17T04:29:49.908Z,14.10
2017-07-17T04:32:17.476Z,14.20
2017-07-17T04:34:45.118Z,14.30
2017-07-17T04:37:12.715Z,14.50
2017-07-17T04:39:40.285Z,14.60
2017-07-17T04:42:07.832Z,14.60
2017-07-17T04:44:35.383Z,14.70
2017-07-17T04:47:03.023Z,14.80
2017-07-17T04:49:30.859Z,14.90
2017-07-17T04:51:58.417Z,15.00
2017-07-17T04:54:25.987Z,15.20
2017-07-17T04:56:53.539Z,15.20
2017-07-17T04:59:21.087Z,15.30
2017-07-17T05:01:48.646Z,15.40
2017-07-17T05:04:16.952Z,15.30
2017-07-17T05:06:44.495Z,15.30
2017-07-17T05:09:12.056Z,15.30
2017-07-17T05:11:39.591Z,15.30
2017-07-17T05:14:07.111Z,15.30
2017-07-17T05:16:35.005Z,15.30
2017-07-17T05:19:02.526Z,15.20
2017-07-17T05:21:30.040Z,15.20
2017-07-17T05:23:57.830Z,15.30
2017-07-17T05:26:25.346Z,15.40
2017-07-17T05:28:52.858Z,15.40
2017-07-17T05:31:20.406Z,15.40
2017-07-17T05:33:47.919Z,15.40
2017-07-17T05:36:15.460Z,15.50
2017-07-17T05:38:43.079Z,15.50
2017-07-17T05:41:10.596Z,15.60
2017-07-17T05:43:38.133Z,15.70
2017-07-17T05:46:06.112Z,15.90
2017-07-17T05:48:33.640Z,16.00
2017-07-17T05:51:01.156Z,16.30
2017-07-17T05:53:29.344Z,16.50
2017-07-17T05:55:57.636Z,16.80
2017-07-17T05:58:25.150Z,16.80
2017-07-17T06:00:52.829Z,16.90
2017-07-17T06:03:20.380Z,17.10
2017-07-17T06:05:47.913Z,17.20
2017-07-17T06:08:15.456Z,17.40
2017-07-17T06:10:42.984Z,17.50
2017-07-17T06:13:11.290Z,18.00
2017-07-17T06:15:38.821Z,18.00
2017-07-17T06:18:06.741Z,18.40
2017-07-17T06:20:34.244Z,18.80
2017-07-17T06:23:02.537Z,19.80
2017-07-17T06:25:30.079Z,19.70
2017-07-17T06:27:57.594Z,20.20
2017-07-17T06:30:25.148Z,20.70
2017-07-17T06:32:52.715Z,21.30
2017-07-17T06:35:20.224Z,22.00
2017-07-17T06:37:47.792Z,22.60
2017-07-17T06:40:15.704Z,23.00
2017-07-17T06:42:43.233Z,23.80
2017-07-17T06:45:10.770Z,24.50
2017-07-17T06:47:38.558Z,25.00
2017-07-17T06:50:06.091Z,25.40
2017-07-17T06:52:33.606Z,25.90
2017-07-17T06:55:01.144Z,26.40
2017-07-17T06:57:29.483Z,26.70
2017-07-17T06:59:57.018Z,26.90
2017-07-17T07:02:25.308Z,27.10
2017-07-17T07:04:52.785Z,27.00
2017-07-17T07:07:20.319Z,26.90
2017-07-17T07:09:48.242Z,26.70
2017-07-17T07:12:15.764Z,26.90
2017-07-17T07:14:43.302Z,27.10
2017-07-17T07:17:10.840Z,27.40
2017-07-17T07:19:38.389Z,27.40
2017-07-17T07:22:05.891Z,27.50
2017-07-17T07:24:33.695Z,27.00
2017-07-17T07:27:01.217Z,27.10
2017-07-17T07:29:28.745Z,26.80
2017-07-17T07:31:56.274Z,26.50
2017-07-17T07:34:23.790Z,26.70
2017-07-17T07:36:51.321Z,26.50
2017-07-17T07:39:18.851Z,26.50
2017-07-17T07:41:46.395Z,26.40
2017-07-17T07:44:13.910Z,25.90
2017-07-17T07:46:42.595Z,25.00
2017-07-17T07:49:10.877Z,24.60
2017-07-17T07:51:39.174Z,24.60
2017-07-17T07:54:07.013Z,24.60
2017-07-17T07:56:35.317Z,23.90
2017-07-17T07:59:02.834Z,23.90
2017-07-17T08:01:30.620Z,23.90
2017-07-17T08:03:58.906Z,24.50
2017-07-17T08:06:26.416Z,24.40
2017-07-17T08:08:53.990Z,25.00
2017-07-17T08:11:21.540Z,25.20
2017-07-17T08:13:49.087Z,24.90
2017-07-17T08:16:16.622Z,24.60
2017-07-17T08:18:44.164Z,24.70
2017-07-17T08:21:11.702Z,24.60
2017-07-17T08:23:40.359Z,24.20
2017-07-17T08:26:07.891Z,24.10
2017-07-17T08:28:35.436Z,24.10
2017-07-17T08:31:02.970Z,24.30
2017-07-17T08:33:31.264Z,25.00
2017-07-17T08:35:58.802Z,25.00
2017-07-17T08:38:26.330Z,25.40
2017-07-17T08:40:54.701Z,25.30
2017-07-17T08:43:22.245Z,25.30
2017-07-17T08:45:49.793Z,25.10
2017-07-17T08:48:17.319Z,24.90
2017-07-17T08:50:44.856Z,25.00
2017-07-17T08:53:12.391Z,24.90
2017-07-17T08:55:39.914Z,25.00
2017-07-17T08:58:07.829Z,25.30
2017-07-17T09:00:35.351Z,25.00
2017-07-17T09:03:02.864Z,25.00
2017-07-17T09:05:30.415Z,24.90
2017-07-17T09:07:57.963Z,25.10
2017-07-17T09:10:25.956Z,25.30
2017-07-17T09:12:54.256Z,25.40
2017-07-17T09:15:21.764Z,25.40
2017-07-17T09:17:49.331Z,25.40
2017-07-17T09:20:16.856Z,25.10
2017-07-17T09:22:44.410Z,25.00
2017-07-17T09:25:11.949Z,25.40
2017-07-17T09:27:39.765Z,25.60
2017-07-17T09:30:07.304Z,25.60
2017-07-17T09:32:35.303Z,25.30
2017-07-17T09:35:02.851Z,25.30
2017-07-17T09:37:30.378Z,25.30
2017-07-17T09:39:57.920Z,25.30
2017-07-17T09:42:25.490Z,25.50
2017-07-17T09:44:53.051Z,25.60
2017-07-17T09:47:20.869Z,25.90
2017-07-17T09:49:48.398Z,25.90
2017-07-17T09:52:15.936Z,26.30
2017-07-17T09:54:43.471Z,26.00
2017-07-17T09:57:11.005Z,26.10
2017-07-17T09:59:39.328Z,25.90
2017-07-17T10:02:06.850Z,25.80
2017-07-17T10:04:34.427Z,25.70
2017-07-17T10:07:01.964Z,25.60
2017-07-17T10:09:29.510Z,25.40
2017-07-17T10:11:57.048Z,25.60
2017-07-17T10:14:24.582Z,25.80
2017-07-17T10:16:52.123Z,26.00
2017-07-17T10:19:20.418Z,26.20
2017-07-17T10:21:48.260Z,26.20
2017-07-17T10:24:15.800Z,26.30
2017-07-17T10:26:43.336Z,25.70
2017-07-17T10:29:10.873Z,25.70
2017-07-17T10:31:38.430Z,26.10
2017-07-17T10:34:05.969Z,26.50
2017-07-17T10:36:33.563Z,26.90
2017-07-17T10:39:01.096Z,26.70
2017-07-17T10:41:28.644Z,26.90
2017-07-17T10:43:56.231Z,26.70
2017-07-17T10:46:23.791Z,26.30
2017-07-17T10:48:51.361Z,26.40
2017-07-17T10:51:19.379Z,26.30
2017-07-17T10:53:47.689Z,26.30
2017-07-17T10:56:15.221Z,26.30
2017-07-17T10:58:42.756Z,26.60
2017-07-17T11:01:10.281Z,26.60
2017-07-17T11:03:37.825Z,26.80
2017-07-17T11:06:05.371Z,26.90
2017-07-17T11:08:32.927Z,26.30
2017-07-17T11:11:00.447Z,25.80
2017-07-17T11:13:28.307Z,25.60
2017-07-17T11:15:55.837Z,25.70
2017-07-17T11:18:23.367Z,25.90
2017-07-17T11:20:51.229Z,26.30
2017-07-17T11:23:18.994Z,26.50
2017-07-17T11:25:46.901Z,26.60
2017-07-17T11:28:14.444Z,26.70
2017-07-17T11:30:42.002Z,26.70
2017-07-17T11:33:09.567Z,26.70
2017-07-17T11:35:37.117Z,26.60
2017-07-17T11:38:04.687Z,26.50
2017-07-17T11:40:32.244Z,26.40
2017-07-17T11:42:59.796Z,26.50
2017-07-17T11:45:28.413Z,26.70
2017-07-17T12:00:28.317Z,27.50
2017-07-17T12:02:55.878Z,27.40
2017-07-17T12:07:50.432Z,27.10
2017-07-17T12:10:17.991Z,26.80
2017-07-17T12:12:45.557Z,26.50
2017-07-17T12:15:13.088Z,26.30
2017-07-17T12:17:40.632Z,26.00
2017-07-17T12:20:08.220Z,25.50
2017-07-17T12:22:35.748Z,25.30
2017-07-17T12:25:04.057Z,24.90
2017-07-17T12:27:31.612Z,24.90
2017-07-17T12:29:59.153Z,24.90
2017-07-17T12:32:27.501Z,24.60
2017-07-17T12:34:55.077Z,24.50
2017-07-17T12:37:23.416Z,24.70
2017-07-17T12:39:50.948Z,24.70
2017-07-17T12:42:18.483Z,24.90
2017-07-17T12:44:46.808Z,24.90
2017-07-17T12:47:14.369Z,24.90
2017-07-17T12:49:42.278Z,24.90
2017-07-17T12:52:09.836Z,24.80
2017-07-17T12:54:37.369Z,24.90
2017-07-17T12:57:04.931Z,25.00
2017-07-17T12:59:32.498Z,25.00
2017-07-17T13:02:00.069Z,25.20
2017-07-17T13:04:27.603Z,25.50
2017-07-17T13:06:55.173Z,25.80
2017-07-17T13:09:22.717Z,25.90
2017-07-17T13:11:50.611Z,25.80
2017-07-17T13:14:18.150Z,25.60
2017-07-17T13:16:45.681Z,25.50
2017-07-17T13:19:13.245Z,25.30
2017-07-17T13:21:40.791Z,25.40
2017-07-17T13:24:08.337Z,25.40
2017-07-17T13:26:35.913Z,25.30
2017-07-17T13:29:03.493Z,25.40
2017-07-17T13:31:31.031Z,25.50
2017-07-17T13:33:58.966Z,26.30
2017-07-17T13:36:27.257Z,27.30
2017-07-17T13:38:54.798Z,27.20
2017-07-17T13:41:22.365Z,27.40
2017-07-17T13:43:50.688Z,27.70
2017-07-17T13:46:18.224Z,27.60
2017-07-17T13:48:46.166Z,27.60
2017-07-17T13:51:14.466Z,27.40
2017-07-17T13:53:42.008Z,27.30
2017-07-17T13:56:09.953Z,27.40
2017-07-17T13:58:37.506Z,27.70
2017-07-17T14:01:05.057Z,27.40
2017-07-17T14:03:32.605Z,27.40
2017-07-17T14:06:00.166Z,27.00
2017-07-17T14:08:27.732Z,27.60
2017-07-17T14:10:55.271Z,28.10
2017-07-17T14:13:22.824Z,28.10
2017-07-17T14:15:50.372Z,27.40
2017-07-17T14:18:18.171Z,26.80
2017-07-17T14:20:45.727Z,26.40
2017-07-17T14:23:13.265Z,25.90
2017-07-17T14:25:40.823Z,25.60
2017-07-17T14:28:08.362Z,25.50
2017-07-17T14:30:35.940Z,25.60
2017-07-17T14:33:03.489Z,25.50
2017-07-17T14:35:31.542Z,25.40
2017-07-17T14:37:59.857Z,25.90
2017-07-17T14:40:27.396Z,25.80
2017-07-17T14:42:55.318Z,26.30
2017-07-17T14:45:22.846Z,26.60
2017-07-17T14:47:50.374Z,27.50
2017-07-17T14:50:18.312Z,27.30
2017-07-17T14:52:45.838Z,27.40
2017-07-17T14:55:13.360Z,27.70
2017-07-17T14:57:40.927Z,27.80
2017-07-17T15:00:08.496Z,27.80
2017-07-17T15:02:36.195Z,27.70
2017-07-17T15:05:04.089Z,27.60
2017-07-17T15:07:31.623Z,27.10
2017-07-17T15:09:59.168Z,27.00
2017-07-17T15:12:26.703Z,27.10
2017-07-17T15:14:54.242Z,26.90
2017-07-17T15:17:21.795Z,27.10
2017-07-17T15:19:50.102Z,26.60
2017-07-17T15:22:17.631Z,26.60
2017-07-17T15:24:45.194Z,27.50
2017-07-17T15:27:12.736Z,28.70
2017-07-17T15:29:40.272Z,29.50
2017-07-17T15:32:07.804Z,29.80
2017-07-17T15:34:35.346Z,28.90
2017-07-17T15:37:02.890Z,29.00
2017-07-17T15:39:30.447Z,29.50
2017-07-17T15:41:58.002Z,29.40
2017-07-17T15:44:25.544Z,29.30
2017-07-17T15:46:53.075Z,29.10
2017-07-17T15:49:20.638Z,28.10
2017-07-17T15:51:48.237Z,27.90
2017-07-17T15:54:16.906Z,28.80
2017-07-17T15:56:45.215Z,29.00
2017-07-17T15:59:12.763Z,29.00
2017-07-17T16:01:40.332Z,29.40
2017-07-17T16:04:07.884Z,29.70
2017-07-17T16:06:35.451Z,30.00
2017-07-17T16:09:02.998Z,29.80
2017-07-17T16:11:30.540Z,29.40
2017-07-17T16:13:58.910Z,29.10
2017-07-17T16:16:26.490Z,29.10
2017-07-17T16:18:54.856Z,28.10
2017-07-17T16:21:22.462Z,28.00
2017-07-17T16:23:49.994Z,28.00
2017-07-17T16:26:17.559Z,28.10
2017-07-17T16:28:45.207Z,27.50
2017-07-17T16:31:12.759Z,27.30
2017-07-17T16:33:40.335Z,27.30
2017-07-17T16:36:07.876Z,27.00
2017-07-17T16:38:35.513Z,27.50
2017-07-17T16:41:03.512Z,28.50
2017-07-17T16:43:31.853Z,28.10
2017-07-17T16:45:59.402Z,28.10
2017-07-17T16:48:27.003Z,27.40
2017-07-17T16:50:54.548Z,26.80
2017-07-17T16:53:22.117Z,26.60
2017-07-17T16:55:49.702Z,27.00
2017-07-17T16:58:17.236Z,27.60
2017-07-17T17:00:44.843Z,28.00
2017-07-17T17:03:12.559Z,28.00
2017-07-17T17:05:40.107Z,28.40
2017-07-17T17:08:07.661Z,29.10
2017-07-17T17:10:36.421Z,30.80
2017-07-17T17:13:03.968Z,30.80
2017-07-17T17:15:31.547Z,29.80
2017-07-17T17:17:59.534Z,27.90
2017-07-17T17:20:27.064Z,27.30
2017-07-17T17:22:54.617Z,27.40
2017-07-17T17:25:22.844Z,27.30
2017-07-17T17:27:50.404Z,26.60
2017-07-17T17:30:17.939Z,26.30
2017-07-17T17:32:45.735Z,26.30
2017-07-17T17:35:14.064Z,25.60
2017-07-17T17:37:41.628Z,25.60
2017-07-17T17:40:09.568Z,25.30
2017-07-17T17:42:37.370Z,25.00
2017-07-17T17:45:04.940Z,24.60
2017-07-17T17:47:32.638Z,24.40
2017-07-17T17:50:00.184Z,24.20
2017-07-17T17:52:28.515Z,23.90
2017-07-17T17:54:56.369Z,23.90
2017-07-17T17:57:23.949Z,23.70
2017-07-17T17:59:52.776Z,23.50
2017-07-17T18:02:21.573Z,23.30
2017-07-17T18:04:50.151Z,23.20
2017-07-17T18:07:19.011Z,23.10
2017-07-17T18:09:47.045Z,23.10
2017-07-17T18:12:15.905Z,23.10
2017-07-17T18:14:43.644Z,23.00
2017-07-17T18:17:11.326Z,22.90
2017-07-17T18:19:39.854Z,22.80
2017-07-17T18:22:07.469Z,22.70
2017-07-17T18:24:35.810Z,22.60
2017-07-17T18:27:03.393Z,22.60
2017-07-17T18:29:30.934Z,22.60
2017-07-17T18:31:58.498Z,22.50
2017-07-17T18:34:26.071Z,22.40
2017-07-17T18:36:56.259Z,22.30
2017-07-17T18:39:23.829Z,22.30
2017-07-17T18:41:51.696Z,22.20
2017-07-17T18:44:19.539Z,22.10
2017-07-17T18:46:47.077Z,22.00
2017-07-17T18:49:14.612Z,21.90
2017-07-17T18:51:42.877Z,21.80
2017-07-17T18:54:10.415Z,21.70
2017-07-17T18:56:37.978Z,21.60
2017-07-17T18:59:06.134Z,21.50
2017-07-17T19:01:33.694Z,21.50
2017-07-17T19:04:01.223Z,21.30
2017-07-17T19:06:29.069Z,21.30
2017-07-17T19:08:57.427Z,21.20
2017-07-17T19:11:24.960Z,21.10
2017-07-17T19:13:52.512Z,21.10
2017-07-17T19:16:20.070Z,21.10
2017-07-17T19:18:47.633Z,21.00
2017-07-17T19:21:15.225Z,20.90
2017-07-17T19:23:42.767Z,20.90
2017-07-17T19:26:10.363Z,20.80
2017-07-17T19:28:38.693Z,20.60
2017-07-17T19:31:06.241Z,20.60
2017-07-17T19:33:33.783Z,20.60
2017-07-17T19:36:01.373Z,20.50
2017-07-17T19:38:28.937Z,20.40
2017-07-17T19:40:56.490Z,20.30
2017-07-17T19:43:24.050Z,20.20
2017-07-17T19:45:52.056Z,20.10
2017-07-17T19:48:19.592Z,20.10
2017-07-17T19:50:47.126Z,20.00
2017-07-17T19:53:14.684Z,19.90
2017-07-17T19:55:42.237Z,19.90
2017-07-17T19:58:09.796Z,19.80
2017-07-17T20:00:37.614Z,19.70
2017-07-17T20:03:05.137Z,19.60
2017-07-17T20:05:32.691Z,19.50
2017-07-17T20:08:00.257Z,19.50
2017-07-17T20:10:27.838Z,19.30
2017-07-17T20:12:55.407Z,19.30
2017-07-17T20:15:22.983Z,19.30
2017-07-17T20:17:51.302Z,19.20
2017-07-17T20:20:19.153Z,19.10
2017-07-17T20:22:46.708Z,19.10
2017-07-17T20:25:14.285Z,19.00
2017-07-17T20:27:41.835Z,19.00
2017-07-17T20:30:09.404Z,19.00
2017-07-17T20:32:36.980Z,18.90
2017-07-17T20:35:04.530Z,18.90
2017-07-17T20:37:32.577Z,18.80
2017-07-17T20:40:00.135Z,18.70
2017-07-17T20:42:27.686Z,18.70
2017-07-17T20:44:55.246Z,18.70
2017-07-17T20:47:23.223Z,18.70
2017-07-17T20:49:50.770Z,18.70
2017-07-17T20:52:18.302Z,18.60
2017-07-17T20:54:46.176Z,18.60
2017-07-17T20:57:13.705Z,18.50
2017-07-17T20:59:41.247Z,18.50
2017-07-17T21:02:09.174Z,18.50
2017-07-17T21:04:37.514Z,18.40
2017-07-17T21:07:05.086Z,18.40
2017-07-17T21:09:32.966Z,18.30
2017-07-17T21:12:00.483Z,18.30
2017-07-17T21:14:28.031Z,18.30
2017-07-17T21:16:55.575Z,18.20
2017-07-17T21:19:23.097Z,18.20
2017-07-17T21:21:50.667Z,18.20
2017-07-17T21:24:19.259Z,18.10
2017-07-17T21:26:46.822Z,18.10
2017-07-17T21:29:15.137Z,18.10
2017-07-17T21:31:42.685Z,18.10
2017-07-17T21:34:10.273Z,18.00
2017-07-17T21:36:37.808Z,18.00
2017-07-17T21:39:05.399Z,18.00
2017-07-17T21:41:32.946Z,18.00
2017-07-17T21:44:00.491Z,18.00
2017-07-17T21:46:28.507Z,18.00
2017-07-17T21:48:56.162Z,18.00
2017-07-17T21:51:23.694Z,18.00
2017-07-17T21:53:51.530Z,17.90
2017-07-17T21:56:19.062Z,17.90
2017-07-17T21:58:46.618Z,17.90
2017-07-17T22:01:14.945Z,17.80
2017-07-17T22:03:42.486Z,17.80
2017-07-17T22:06:10.054Z,17.80
2017-07-17T22:08:37.611Z,17.70
2017-07-17T22:11:05.180Z,17.60
2017-07-17T22:13:32.731Z,17.60
2017-07-17T22:16:00.297Z,17.50
2017-07-17T22:18:27.878Z,17.40
2017-07-17T22:20:56.657Z,17.30
2017-07-17T22:23:24.644Z,17.30
2017-07-17T22:25:52.182Z,17.20
2017-07-17T22:28:19.708Z,17.10
2017-07-17T22:30:47.251Z,17.10
2017-07-17T22:33:15.570Z,16.90
2017-07-17T22:35:43.861Z,16.90
2017-07-17T22:38:11.402Z,16.90
2017-07-17T22:40:39.312Z,16.80
2017-07-17T22:43:06.830Z,16.80
2017-07-17T22:45:34.413Z,16.80
2017-07-17T22:48:01.959Z,16.80
2017-07-17T22:50:29.487Z,16.80
2017-07-17T22:52:57.069Z,16.80
2017-07-17T22:55:24.629Z,16.80
2017-07-17T22:57:52.171Z,16.80
2017-07-17T23:00:19.710Z,16.80
2017-07-17T23:02:47.647Z,16.70
2017-07-17T23:05:15.175Z,16.60
2017-07-17T23:07:42.757Z,16.50
2017-07-17T23:10:11.571Z,16.50
2017-07-17T23:12:39.903Z,16.40
2017-07-17T23:15:07.427Z,16.40
2017-07-17T23:17:34.959Z,16.40
2017-07-17T23:20:02.498Z,16.30
2017-07-17T23:22:30.027Z,16.30
2017-07-17T23:24:57.589Z,16.30
2017-07-17T23:27:25.108Z,16.30
2017-07-17T23:29:52.647Z,16.30
2017-07-17T23:32:20.192Z,16.30
2017-07-17T23:34:47.742Z,16.20
2017-07-17T23:37:15.270Z,16.20
2017-07-17T23:39:42.831Z,16.20
2017-07-17T23:42:10.351Z,16.20
2017-07-17T23:44:38.678Z,16.20
2017-07-17T23:47:06.242Z,16.10
2017-07-17T23:49:33.781Z,16.10
2017-07-17T23:52:01.613Z,16.10
2017-07-17T23:54:30.512Z,16.10
2017-07-17T23:56:58.811Z,16.10
2017-07-17T23:59:26.639Z,16.10
